sensor_id;sensor_type;location;lat;lon;timestamp;temperature;humidity
70244;DHT22;57634;51.136;17.024;2023-08-24T00:03:00;20.60;63.20
70244;DHT22;57634;51.136;17.024;2023-08-24T00:06:04;20.60;63.20
70244;DHT22;57634;51.136;17.024;2023-08-24T00:09:05;20.50;63.20
70244;DHT22;57634;51.136;17.024;2023-08-24T00:12:34;20.50;63.40
70244;DHT22;57634;51.136;17.024;2023-08-24T00:15:36;20.40;63.80
70244;DHT22;57634;51.136;17.024;2023-08-24T00:18:38;20.30;64.00
70244;DHT22;57634;51.136;17.024;2023-08-24T00:21:39;20.30;64.30
70244;DHT22;57634;51.136;17.024;2023-08-24T00:24:40;20.30;64.50
70244;DHT22;57634;51.136;17.024;2023-08-24T00:27:42;20.30;64.50
70244;DHT22;57634;51.136;17.024;2023-08-24T00:30:43;20.30;64.70
70244;DHT22;57634;51.136;17.024;2023-08-24T00:33:45;20.20;64.80
70244;DHT22;57634;51.136;17.024;2023-08-24T00:36:46;20.20;64.90
70244;DHT22;57634;51.136;17.024;2023-08-24T00:39:47;20.20;65.10
70244;DHT22;57634;51.136;17.024;2023-08-24T00:42:49;20.10;65.20
70244;DHT22;57634;51.136;17.024;2023-08-24T00:45:51;20.10;65.50
70244;DHT22;57634;51.136;17.024;2023-08-24T00:48:53;20.00;65.50
70244;DHT22;57634;51.136;17.024;2023-08-24T00:52:26;20.10;65.70
70244;DHT22;57634;51.136;17.024;2023-08-24T00:55:28;20.00;66.00
70244;DHT22;57634;51.136;17.024;2023-08-24T00:58:31;20.00;66.20
70244;DHT22;57634;51.136;17.024;2023-08-24T01:01:33;20.00;66.30
70244;DHT22;57634;51.136;17.024;2023-08-24T01:04:34;19.90;66.40
70244;DHT22;57634;51.136;17.024;2023-08-24T01:07:39;19.90;66.70
70244;DHT22;57634;51.136;17.024;2023-08-24T01:17:35;19.90;66.80
70244;DHT22;57634;51.136;17.024;2023-08-24T01:20:37;20.00;67.00
70244;DHT22;57634;51.136;17.024;2023-08-24T01:26:54;20.00;67.30
70244;DHT22;57634;51.136;17.024;2023-08-24T01:29:56;20.00;67.50
70244;DHT22;57634;51.136;17.024;2023-08-24T01:32:58;20.10;67.50
70244;DHT22;57634;51.136;17.024;2023-08-24T01:36:00;20.10;67.50
70244;DHT22;57634;51.136;17.024;2023-08-24T01:39:11;20.10;67.60
70244;DHT22;57634;51.136;17.024;2023-08-24T01:43:08;20.10;67.40
70244;DHT22;57634;51.136;17.024;2023-08-24T01:45:55;20.10;67.50
70244;DHT22;57634;51.136;17.024;2023-08-24T01:48:58;20.10;67.50
70244;DHT22;57634;51.136;17.024;2023-08-24T01:52:02;20.10;67.50
70244;DHT22;57634;51.136;17.024;2023-08-24T01:55:06;20.10;67.70
70244;DHT22;57634;51.136;17.024;2023-08-24T01:58:08;20.00;67.90
70244;DHT22;57634;51.136;17.024;2023-08-24T02:01:09;20.10;68.50
70244;DHT22;57634;51.136;17.024;2023-08-24T02:04:13;20.10;69.00
70244;DHT22;57634;51.136;17.024;2023-08-24T02:07:14;20.20;69.40
70244;DHT22;57634;51.136;17.024;2023-08-24T02:10:42;20.20;69.60
70244;DHT22;57634;51.136;17.024;2023-08-24T02:13:43;20.20;69.60
70244;DHT22;57634;51.136;17.024;2023-08-24T02:16:45;20.20;69.50
70244;DHT22;57634;51.136;17.024;2023-08-24T02:19:46;20.20;69.50
70244;DHT22;57634;51.136;17.024;2023-08-24T02:22:47;20.30;69.60
70244;DHT22;57634;51.136;17.024;2023-08-24T02:25:49;20.30;69.60
70244;DHT22;57634;51.136;17.024;2023-08-24T02:28:50;20.30;69.50
70244;DHT22;57634;51.136;17.024;2023-08-24T02:31:52;20.30;69.40
70244;DHT22;57634;51.136;17.024;2023-08-24T02:34:53;20.30;69.20
70244;DHT22;57634;51.136;17.024;2023-08-24T02:37:55;20.30;69.00
70244;DHT22;57634;51.136;17.024;2023-08-24T02:41:05;20.40;68.70
70244;DHT22;57634;51.136;17.024;2023-08-24T02:44:06;20.30;68.30
70244;DHT22;57634;51.136;17.024;2023-08-24T02:47:34;20.30;68.10
70244;DHT22;57634;51.136;17.024;2023-08-24T02:50:37;20.30;68.20
70244;DHT22;57634;51.136;17.024;2023-08-24T02:53:39;20.20;68.30
70244;DHT22;57634;51.136;17.024;2023-08-24T02:56:40;20.20;68.30
70244;DHT22;57634;51.136;17.024;2023-08-24T02:59:42;20.20;68.30
70244;DHT22;57634;51.136;17.024;2023-08-24T03:02:45;20.10;68.20
70244;DHT22;57634;51.136;17.024;2023-08-24T03:05:56;20.10;68.30
70244;DHT22;57634;51.136;17.024;2023-08-24T03:09:00;20.00;68.40
70244;DHT22;57634;51.136;17.024;2023-08-24T03:12:05;19.90;68.50
70244;DHT22;57634;51.136;17.024;2023-08-24T03:15:06;19.90;68.60
70244;DHT22;57634;51.136;17.024;2023-08-24T03:18:34;19.90;68.70
70244;DHT22;57634;51.136;17.024;2023-08-24T03:21:35;19.80;68.80
70244;DHT22;57634;51.136;17.024;2023-08-24T03:24:36;19.80;69.00
70244;DHT22;57634;51.136;17.024;2023-08-24T03:27:38;19.80;69.10
70244;DHT22;57634;51.136;17.024;2023-08-24T03:30:48;19.80;69.10
70244;DHT22;57634;51.136;17.024;2023-08-24T03:33:49;19.80;69.10
70244;DHT22;57634;51.136;17.024;2023-08-24T03:36:51;19.80;69.20
70244;DHT22;57634;51.136;17.024;2023-08-24T03:39:52;19.80;69.10
70244;DHT22;57634;51.136;17.024;2023-08-24T03:42:53;19.80;69.10
70244;DHT22;57634;51.136;17.024;2023-08-24T03:45:54;19.80;69.10
70244;DHT22;57634;51.136;17.024;2023-08-24T03:48:55;19.80;69.10
70244;DHT22;57634;51.136;17.024;2023-08-24T03:51:57;19.70;69.00
70244;DHT22;57634;51.136;17.024;2023-08-24T03:54:59;19.70;69.00
70244;DHT22;57634;51.136;17.024;2023-08-24T03:58:26;19.70;69.10
70244;DHT22;57634;51.136;17.024;2023-08-24T04:01:27;19.60;69.30
70244;DHT22;57634;51.136;17.024;2023-08-24T04:04:32;19.60;69.40
70244;DHT22;57634;51.136;17.024;2023-08-24T04:07:33;19.60;69.50
70244;DHT22;57634;51.136;17.024;2023-08-24T04:10:38;19.60;69.50
70244;DHT22;57634;51.136;17.024;2023-08-24T04:13:40;19.60;69.60
70244;DHT22;57634;51.136;17.024;2023-08-24T04:16:41;19.70;69.80
70244;DHT22;57634;51.136;17.024;2023-08-24T04:19:42;19.70;69.70
70244;DHT22;57634;51.136;17.024;2023-08-24T04:22:44;19.80;69.50
70244;DHT22;57634;51.136;17.024;2023-08-24T04:25:46;19.90;69.30
70244;DHT22;57634;51.136;17.024;2023-08-24T04:28:47;20.00;69.10
70244;DHT22;57634;51.136;17.024;2023-08-24T04:31:49;20.10;68.90
70244;DHT22;57634;51.136;17.024;2023-08-24T04:34:50;20.20;68.80
70244;DHT22;57634;51.136;17.024;2023-08-24T04:38:17;20.30;68.50
70244;DHT22;57634;51.136;17.024;2023-08-24T04:41:18;20.40;68.10
70244;DHT22;57634;51.136;17.024;2023-08-24T04:44:20;20.60;67.90
70244;DHT22;57634;51.136;17.024;2023-08-24T04:47:21;20.80;67.60
70244;DHT22;57634;51.136;17.024;2023-08-24T04:50:22;21.10;67.00
70244;DHT22;57634;51.136;17.024;2023-08-24T04:53:25;21.40;66.80
70244;DHT22;57634;51.136;17.024;2023-08-24T04:56:27;21.90;66.00
70244;DHT22;57634;51.136;17.024;2023-08-24T04:59:28;22.60;65.10
70244;DHT22;57634;51.136;17.024;2023-08-24T05:02:29;23.50;63.10
70244;DHT22;57634;51.136;17.024;2023-08-24T05:05:32;24.50;60.50
70244;DHT22;57634;51.136;17.024;2023-08-24T05:08:34;25.50;57.70
70244;DHT22;57634;51.136;17.024;2023-08-24T05:11:35;26.40;55.40
70244;DHT22;57634;51.136;17.024;2023-08-24T05:14:36;27.30;53.30
70244;DHT22;57634;51.136;17.024;2023-08-24T05:17:37;28.30;50.80
70244;DHT22;57634;51.136;17.024;2023-08-24T05:21:05;29.20;48.70
70244;DHT22;57634;51.136;17.024;2023-08-24T05:24:06;30.10;45.80
70244;DHT22;57634;51.136;17.024;2023-08-24T05:27:08;30.80;43.80
70244;DHT22;57634;51.136;17.024;2023-08-24T05:30:11;31.60;42.10
70244;DHT22;57634;51.136;17.024;2023-08-24T05:33:12;32.30;40.60
70244;DHT22;57634;51.136;17.024;2023-08-24T05:36:13;33.10;39.20
70244;DHT22;57634;51.136;17.024;2023-08-24T05:39:14;34.00;37.80
70244;DHT22;57634;51.136;17.024;2023-08-24T05:42:16;34.90;36.20
70244;DHT22;57634;51.136;17.024;2023-08-24T05:45:17;35.60;34.80
70244;DHT22;57634;51.136;17.024;2023-08-24T05:48:19;36.30;33.40
70244;DHT22;57634;51.136;17.024;2023-08-24T05:51:20;36.90;32.50
70244;DHT22;57634;51.136;17.024;2023-08-24T05:54:22;37.80;31.30
70244;DHT22;57634;51.136;17.024;2023-08-24T05:57:23;38.60;30.00
70244;DHT22;57634;51.136;17.024;2023-08-24T06:00:25;39.30;29.10
70244;DHT22;57634;51.136;17.024;2023-08-24T06:03:51;39.80;28.20
70244;DHT22;57634;51.136;17.024;2023-08-24T06:06:53;40.50;26.90
70244;DHT22;57634;51.136;17.024;2023-08-24T06:09:54;41.10;26.10
70244;DHT22;57634;51.136;17.024;2023-08-24T06:12:55;41.50;25.50
70244;DHT22;57634;51.136;17.024;2023-08-24T06:15:56;42.10;25.00
70244;DHT22;57634;51.136;17.024;2023-08-24T06:18:57;42.60;24.40
70244;DHT22;57634;51.136;17.024;2023-08-24T06:21:59;43.20;24.00
70244;DHT22;57634;51.136;17.024;2023-08-24T06:25:00;43.60;23.60
70244;DHT22;57634;51.136;17.024;2023-08-24T06:28:02;44.00;23.10
70244;DHT22;57634;51.136;17.024;2023-08-24T06:31:05;44.50;22.70
70244;DHT22;57634;51.136;17.024;2023-08-24T06:34:09;44.80;22.30
70244;DHT22;57634;51.136;17.024;2023-08-24T06:37:10;45.30;21.90
70244;DHT22;57634;51.136;17.024;2023-08-24T06:40:11;45.70;21.60
70244;DHT22;57634;51.136;17.024;2023-08-24T06:43:41;46.10;21.20
70244;DHT22;57634;51.136;17.024;2023-08-24T06:46:42;46.50;20.50
70244;DHT22;57634;51.136;17.024;2023-08-24T06:49:44;46.90;20.00
70244;DHT22;57634;51.136;17.024;2023-08-24T06:52:46;47.20;19.70
70244;DHT22;57634;51.136;17.024;2023-08-24T06:55:56;47.60;19.40
70244;DHT22;57634;51.136;17.024;2023-08-24T06:58:57;47.70;19.40
70244;DHT22;57634;51.136;17.024;2023-08-24T07:01:59;48.00;19.30
70244;DHT22;57634;51.136;17.024;2023-08-24T07:05:00;48.20;19.10
70244;DHT22;57634;51.136;17.024;2023-08-24T07:08:02;48.30;19.00
70244;DHT22;57634;51.136;17.024;2023-08-24T07:11:05;48.40;18.90
70244;DHT22;57634;51.136;17.024;2023-08-24T07:14:06;48.50;18.80
70244;DHT22;57634;51.136;17.024;2023-08-24T07:17:07;48.50;18.70
70244;DHT22;57634;51.136;17.024;2023-08-24T07:20:35;48.40;18.80
70244;DHT22;57634;51.136;17.024;2023-08-24T07:23:36;48.30;18.40
70244;DHT22;57634;51.136;17.024;2023-08-24T07:26:40;48.30;18.40
70244;DHT22;57634;51.136;17.024;2023-08-24T07:29:43;48.30;18.20
70244;DHT22;57634;51.136;17.024;2023-08-24T07:32:44;48.30;18.30
70244;DHT22;57634;51.136;17.024;2023-08-24T07:35:46;48.20;18.30
70244;DHT22;57634;51.136;17.024;2023-08-24T07:38:47;48.10;18.40
70244;DHT22;57634;51.136;17.024;2023-08-24T07:41:48;48.00;18.40
70244;DHT22;57634;51.136;17.024;2023-08-24T07:44:50;47.80;18.60
70244;DHT22;57634;51.136;17.024;2023-08-24T07:47:51;47.60;18.70
70244;DHT22;57634;51.136;17.024;2023-08-24T07:50:54;47.30;18.70
70244;DHT22;57634;51.136;17.024;2023-08-24T07:53:56;47.10;19.00
70244;DHT22;57634;51.136;17.024;2023-08-24T07:56:57;46.90;19.00
70244;DHT22;57634;51.136;17.024;2023-08-24T08:00:24;46.60;19.00
70244;DHT22;57634;51.136;17.024;2023-08-24T08:03:27;46.30;19.10
70244;DHT22;57634;51.136;17.024;2023-08-24T08:06:28;46.00;19.30
70244;DHT22;57634;51.136;17.024;2023-08-24T08:09:29;46.00;19.40
70244;DHT22;57634;51.136;17.024;2023-08-24T08:12:31;46.00;19.40
70244;DHT22;57634;51.136;17.024;2023-08-24T08:15:33;46.10;19.30
70244;DHT22;57634;51.136;17.024;2023-08-24T08:18:35;46.20;19.30
70244;DHT22;57634;51.136;17.024;2023-08-24T08:21:37;46.40;19.10
70244;DHT22;57634;51.136;17.024;2023-08-24T08:24:38;46.50;19.00
70244;DHT22;57634;51.136;17.024;2023-08-24T08:27:39;46.60;18.90
70244;DHT22;57634;51.136;17.024;2023-08-24T08:30:41;46.80;18.70
70244;DHT22;57634;51.136;17.024;2023-08-24T08:33:42;47.10;18.60
70244;DHT22;57634;51.136;17.024;2023-08-24T08:36:44;47.20;18.50
70244;DHT22;57634;51.136;17.024;2023-08-24T08:39:45;47.30;18.40
70244;DHT22;57634;51.136;17.024;2023-08-24T08:42:46;47.40;18.30
70244;DHT22;57634;51.136;17.024;2023-08-24T08:46:14;47.50;18.30
70244;DHT22;57634;51.136;17.024;2023-08-24T08:49:17;47.60;18.10
70244;DHT22;57634;51.136;17.024;2023-08-24T08:52:20;47.90;18.00
70244;DHT22;57634;51.136;17.024;2023-08-24T08:55:22;48.10;17.90
70244;DHT22;57634;51.136;17.024;2023-08-24T08:58:25;48.30;17.70
70244;DHT22;57634;51.136;17.024;2023-08-24T09:01:29;48.60;17.60
70244;DHT22;57634;51.136;17.024;2023-08-24T09:04:32;49.00;17.40
70244;DHT22;57634;51.136;17.024;2023-08-24T09:07:35;49.30;17.10
70244;DHT22;57634;51.136;17.024;2023-08-24T09:10:36;49.60;17.00
70244;DHT22;57634;51.136;17.024;2023-08-24T09:13:37;49.70;16.70
70244;DHT22;57634;51.136;17.024;2023-08-24T09:16:39;49.80;16.60
70244;DHT22;57634;51.136;17.024;2023-08-24T09:19:40;49.90;16.50
70244;DHT22;57634;51.136;17.024;2023-08-24T09:23:21;50.00;16.40
70244;DHT22;57634;51.136;17.024;2023-08-24T09:26:31;50.00;16.20
70244;DHT22;57634;51.136;17.024;2023-08-24T09:29:36;49.70;16.30
70244;DHT22;57634;51.136;17.024;2023-08-24T09:32:39;48.90;16.50
70244;DHT22;57634;51.136;17.024;2023-08-24T09:35:41;47.80;17.00
70244;DHT22;57634;51.136;17.024;2023-08-24T09:38:47;46.60;17.40
70244;DHT22;57634;51.136;17.024;2023-08-24T09:42:26;45.60;17.80
70244;DHT22;57634;51.136;17.024;2023-08-24T09:45:28;44.50;18.30
70244;DHT22;57634;51.136;17.024;2023-08-24T09:48:30;43.40;19.20
70244;DHT22;57634;51.136;17.024;2023-08-24T09:51:34;42.20;20.00
70244;DHT22;57634;51.136;17.024;2023-08-24T09:54:37;41.10;20.80
70244;DHT22;57634;51.136;17.024;2023-08-24T09:57:39;40.30;21.50
70244;DHT22;57634;51.136;17.024;2023-08-24T10:00:41;39.60;22.00
70244;DHT22;57634;51.136;17.024;2023-08-24T10:03:44;39.20;22.60
70244;DHT22;57634;51.136;17.024;2023-08-24T10:06:50;38.80;22.90
70244;DHT22;57634;51.136;17.024;2023-08-24T10:10:21;38.50;23.30
70244;DHT22;57634;51.136;17.024;2023-08-24T10:16:38;37.90;24.10
70244;DHT22;57634;51.136;17.024;2023-08-24T10:19:41;37.50;24.30
70244;DHT22;57634;51.136;17.024;2023-08-24T10:22:45;37.30;24.40
70244;DHT22;57634;51.136;17.024;2023-08-24T10:25:51;37.00;24.90
70244;DHT22;57634;51.136;17.024;2023-08-24T10:28:54;36.70;25.20
70244;DHT22;57634;51.136;17.024;2023-08-24T10:31:57;36.40;25.30
70244;DHT22;57634;51.136;17.024;2023-08-24T10:35:26;36.10;25.60
70244;DHT22;57634;51.136;17.024;2023-08-24T10:38:29;36.00;26.10
70244;DHT22;57634;51.136;17.024;2023-08-24T10:44:45;35.40;26.70
70244;DHT22;57634;51.136;17.024;2023-08-24T10:47:52;35.30;26.90
70244;DHT22;57634;51.136;17.024;2023-08-24T10:54:45;35.10;27.10
70244;DHT22;57634;51.136;17.024;2023-08-24T11:01:00;35.30;27.40
70244;DHT22;57634;51.136;17.024;2023-08-24T11:04:05;35.30;27.40
70244;DHT22;57634;51.136;17.024;2023-08-24T11:07:13;35.40;27.40
70244;DHT22;57634;51.136;17.024;2023-08-24T11:10:17;35.40;27.30
70244;DHT22;57634;51.136;17.024;2023-08-24T11:13:19;35.30;27.20
70244;DHT22;57634;51.136;17.024;2023-08-24T11:16:49;35.10;27.20
70244;DHT22;57634;51.136;17.024;2023-08-24T11:19:54;34.90;27.60
70244;DHT22;57634;51.136;17.024;2023-08-24T11:22:56;34.80;27.80
70244;DHT22;57634;51.136;17.024;2023-08-24T11:26:00;34.70;27.70
70244;DHT22;57634;51.136;17.024;2023-08-24T11:29:05;34.60;27.60
70244;DHT22;57634;51.136;17.024;2023-08-24T11:32:07;34.50;27.60
70244;DHT22;57634;51.136;17.024;2023-08-24T11:35:11;34.50;27.70
70244;DHT22;57634;51.136;17.024;2023-08-24T11:38:13;34.60;27.80
70244;DHT22;57634;51.136;17.024;2023-08-24T11:41:16;34.60;27.70
70244;DHT22;57634;51.136;17.024;2023-08-24T11:44:18;34.60;27.90
70244;DHT22;57634;51.136;17.024;2023-08-24T11:47:48;34.50;27.90
70244;DHT22;57634;51.136;17.024;2023-08-24T11:50:50;34.40;27.90
70244;DHT22;57634;51.136;17.024;2023-08-24T11:53:52;34.40;27.80
70244;DHT22;57634;51.136;17.024;2023-08-24T11:56:54;34.20;28.00
70244;DHT22;57634;51.136;17.024;2023-08-24T11:59:56;34.10;28.00
70244;DHT22;57634;51.136;17.024;2023-08-24T12:02:57;34.00;28.30
70244;DHT22;57634;51.136;17.024;2023-08-24T12:06:00;33.80;28.50
70244;DHT22;57634;51.136;17.024;2023-08-24T12:09:07;33.70;28.70
70244;DHT22;57634;51.136;17.024;2023-08-24T12:12:15;33.70;28.90
70244;DHT22;57634;51.136;17.024;2023-08-24T12:15:20;33.60;28.90
70244;DHT22;57634;51.136;17.024;2023-08-24T12:18:55;33.40;29.00
70244;DHT22;57634;51.136;17.024;2023-08-24T12:22:00;33.30;29.10
70244;DHT22;57634;51.136;17.024;2023-08-24T12:25:01;33.20;29.20
70244;DHT22;57634;51.136;17.024;2023-08-24T12:31:17;33.20;29.70
70244;DHT22;57634;51.136;17.024;2023-08-24T12:34:19;33.30;29.70
70244;DHT22;57634;51.136;17.024;2023-08-24T12:37:21;33.30;29.70
70244;DHT22;57634;51.136;17.024;2023-08-24T12:40:22;33.20;29.50
70244;DHT22;57634;51.136;17.024;2023-08-24T12:43:54;33.20;29.30
70244;DHT22;57634;51.136;17.024;2023-08-24T12:46:56;33.20;29.20
70244;DHT22;57634;51.136;17.024;2023-08-24T12:49:57;33.10;29.00
70244;DHT22;57634;51.136;17.024;2023-08-24T12:52:59;33.00;29.30
70244;DHT22;57634;51.136;17.024;2023-08-24T12:56:01;32.90;29.70
70244;DHT22;57634;51.136;17.024;2023-08-24T12:59:03;32.80;29.60
70244;DHT22;57634;51.136;17.024;2023-08-24T13:02:04;32.70;29.30
70244;DHT22;57634;51.136;17.024;2023-08-24T13:05:06;32.70;29.20
70244;DHT22;57634;51.136;17.024;2023-08-24T13:08:07;32.70;29.30
70244;DHT22;57634;51.136;17.024;2023-08-24T13:11:08;32.60;29.50
70244;DHT22;57634;51.136;17.024;2023-08-24T13:14:09;32.50;29.60
70244;DHT22;57634;51.136;17.024;2023-08-24T13:17:11;32.40;29.60
70244;DHT22;57634;51.136;17.024;2023-08-24T13:20:12;32.30;29.90
70244;DHT22;57634;51.136;17.024;2023-08-24T13:23:13;32.20;30.30
70244;DHT22;57634;51.136;17.024;2023-08-24T13:26:42;32.10;30.90
70244;DHT22;57634;51.136;17.024;2023-08-24T13:29:43;31.90;31.50
70244;DHT22;57634;51.136;17.024;2023-08-24T13:32:45;31.70;31.70
70244;DHT22;57634;51.136;17.024;2023-08-24T13:35:47;31.50;31.50
70244;DHT22;57634;51.136;17.024;2023-08-24T13:38:48;31.30;31.70
70244;DHT22;57634;51.136;17.024;2023-08-24T13:41:51;31.20;32.00
70244;DHT22;57634;51.136;17.024;2023-08-24T13:44:53;31.10;32.00
70244;DHT22;57634;51.136;17.024;2023-08-24T13:47:54;31.00;32.10
70244;DHT22;57634;51.136;17.024;2023-08-24T13:50:55;31.00;31.60
70244;DHT22;57634;51.136;17.024;2023-08-24T13:53:58;30.90;31.60
70244;DHT22;57634;51.136;17.024;2023-08-24T13:56:59;30.80;32.00
70244;DHT22;57634;51.136;17.024;2023-08-24T14:00:03;30.60;32.30
70244;DHT22;57634;51.136;17.024;2023-08-24T14:03:34;30.60;32.70
70244;DHT22;57634;51.136;17.024;2023-08-24T14:06:36;30.60;33.10
70244;DHT22;57634;51.136;17.024;2023-08-24T14:12:42;30.50;33.40
70244;DHT22;57634;51.136;17.024;2023-08-24T14:15:44;30.50;33.70
70244;DHT22;57634;51.136;17.024;2023-08-24T14:18:46;30.40;33.80
70244;DHT22;57634;51.136;17.024;2023-08-24T14:21:47;30.30;34.00
70244;DHT22;57634;51.136;17.024;2023-08-24T14:24:49;30.10;34.40
70244;DHT22;57634;51.136;17.024;2023-08-24T14:27:50;29.90;34.70
70244;DHT22;57634;51.136;17.024;2023-08-24T14:30:52;29.60;35.30
70244;DHT22;57634;51.136;17.024;2023-08-24T14:33:54;29.40;35.70
70244;DHT22;57634;51.136;17.024;2023-08-24T14:36:55;29.20;36.00
70244;DHT22;57634;51.136;17.024;2023-08-24T14:39:57;29.00;36.20
70244;DHT22;57634;51.136;17.024;2023-08-24T14:43:25;28.90;36.50
70244;DHT22;57634;51.136;17.024;2023-08-24T14:46:26;28.90;36.80
70244;DHT22;57634;51.136;17.024;2023-08-24T14:49:27;28.90;37.10
70244;DHT22;57634;51.136;17.024;2023-08-24T14:52:29;28.80;37.20
70244;DHT22;57634;51.136;17.024;2023-08-24T14:55:31;28.60;37.40
70244;DHT22;57634;51.136;17.024;2023-08-24T14:58:33;28.60;37.60
70244;DHT22;57634;51.136;17.024;2023-08-24T15:01:35;28.50;37.30
70244;DHT22;57634;51.136;17.024;2023-08-24T15:04:36;28.40;37.50
70244;DHT22;57634;51.136;17.024;2023-08-24T15:07:38;28.40;37.50
70244;DHT22;57634;51.136;17.024;2023-08-24T15:10:39;28.30;37.50
70244;DHT22;57634;51.136;17.024;2023-08-24T15:13:40;28.20;37.50
70244;DHT22;57634;51.136;17.024;2023-08-24T15:16:42;28.20;37.50
70244;DHT22;57634;51.136;17.024;2023-08-24T15:19:43;28.20;37.70
70244;DHT22;57634;51.136;17.024;2023-08-24T15:22:44;28.20;38.10
70244;DHT22;57634;51.136;17.024;2023-08-24T15:26:12;28.20;38.10
70244;DHT22;57634;51.136;17.024;2023-08-24T15:29:15;28.10;38.20
70244;DHT22;57634;51.136;17.024;2023-08-24T15:32:19;28.00;38.50
70244;DHT22;57634;51.136;17.024;2023-08-24T15:35:21;27.90;38.90
70244;DHT22;57634;51.136;17.024;2023-08-24T15:38:22;27.80;39.00
70244;DHT22;57634;51.136;17.024;2023-08-24T15:41:25;27.80;39.30
70244;DHT22;57634;51.136;17.024;2023-08-24T15:44:26;27.70;39.30
70244;DHT22;57634;51.136;17.024;2023-08-24T15:47:27;27.70;39.40
70244;DHT22;57634;51.136;17.024;2023-08-24T15:50:29;27.60;39.20
70244;DHT22;57634;51.136;17.024;2023-08-24T15:53:30;27.70;39.10
70244;DHT22;57634;51.136;17.024;2023-08-24T15:56:32;27.60;38.90
70244;DHT22;57634;51.136;17.024;2023-08-24T15:59:34;27.60;39.00
70244;DHT22;57634;51.136;17.024;2023-08-24T16:02:35;27.60;39.10
70244;DHT22;57634;51.136;17.024;2023-08-24T16:06:02;27.60;39.20
70244;DHT22;57634;51.136;17.024;2023-08-24T16:09:03;27.70;39.40
70244;DHT22;57634;51.136;17.024;2023-08-24T16:12:05;27.70;39.70
70244;DHT22;57634;51.136;17.024;2023-08-24T16:15:07;27.70;39.70
70244;DHT22;57634;51.136;17.024;2023-08-24T16:18:09;27.60;40.00
70244;DHT22;57634;51.136;17.024;2023-08-24T16:21:10;27.60;40.20
70244;DHT22;57634;51.136;17.024;2023-08-24T16:24:12;27.50;40.30
70244;DHT22;57634;51.136;17.024;2023-08-24T16:27:13;27.50;40.50
70244;DHT22;57634;51.136;17.024;2023-08-24T16:30:14;27.50;40.70
70244;DHT22;57634;51.136;17.024;2023-08-24T16:33:17;27.50;40.70
70244;DHT22;57634;51.136;17.024;2023-08-24T16:36:19;27.50;40.60
70244;DHT22;57634;51.136;17.024;2023-08-24T16:39:20;27.50;40.40
70244;DHT22;57634;51.136;17.024;2023-08-24T16:42:23;27.50;40.50
70244;DHT22;57634;51.136;17.024;2023-08-24T16:45:24;27.50;40.50
70244;DHT22;57634;51.136;17.024;2023-08-24T16:48:51;27.50;40.50
70244;DHT22;57634;51.136;17.024;2023-08-24T16:51:52;27.50;40.50
70244;DHT22;57634;51.136;17.024;2023-08-24T16:57:10;27.60;40.50
70244;DHT22;57634;51.136;17.024;2023-08-24T17:00:12;27.50;40.50
70244;DHT22;57634;51.136;17.024;2023-08-24T17:03:14;27.40;40.50
70244;DHT22;57634;51.136;17.024;2023-08-24T17:06:15;27.40;40.70
70244;DHT22;57634;51.136;17.024;2023-08-24T17:09:17;27.40;41.00
70244;DHT22;57634;51.136;17.024;2023-08-24T17:12:18;27.40;41.10
70244;DHT22;57634;51.136;17.024;2023-08-24T17:15:20;27.30;41.20
70244;DHT22;57634;51.136;17.024;2023-08-24T17:18:21;27.30;41.30
70244;DHT22;57634;51.136;17.024;2023-08-24T17:21:22;27.20;41.50
70244;DHT22;57634;51.136;17.024;2023-08-24T17:24:23;27.20;41.70
70244;DHT22;57634;51.136;17.024;2023-08-24T17:27:25;27.20;41.90
70244;DHT22;57634;51.136;17.024;2023-08-24T17:30:27;27.10;42.20
70244;DHT22;57634;51.136;17.024;2023-08-24T17:33:28;27.10;42.40
70244;DHT22;57634;51.136;17.024;2023-08-24T17:36:57;27.10;42.70
70244;DHT22;57634;51.136;17.024;2023-08-24T17:39:59;27.00;43.10
70244;DHT22;57634;51.136;17.024;2023-08-24T17:43:00;26.90;43.40
70244;DHT22;57634;51.136;17.024;2023-08-24T17:46:01;26.80;43.70
70244;DHT22;57634;51.136;17.024;2023-08-24T17:49:03;26.70;44.00
70244;DHT22;57634;51.136;17.024;2023-08-24T17:52:05;26.70;44.40
70244;DHT22;57634;51.136;17.024;2023-08-24T17:55:07;26.60;44.60
70244;DHT22;57634;51.136;17.024;2023-08-24T17:58:10;26.60;44.70
70244;DHT22;57634;51.136;17.024;2023-08-24T18:01:11;26.60;45.00
70244;DHT22;57634;51.136;17.024;2023-08-24T18:04:13;26.60;45.00
70244;DHT22;57634;51.136;17.024;2023-08-24T18:07:15;26.50;45.00
70244;DHT22;57634;51.136;17.024;2023-08-24T18:10:17;26.50;45.10
70244;DHT22;57634;51.136;17.024;2023-08-24T18:13:18;26.50;45.20
70244;DHT22;57634;51.136;17.024;2023-08-24T18:16:48;26.40;45.30
70244;DHT22;57634;51.136;17.024;2023-08-24T18:19:49;26.40;45.50
70244;DHT22;57634;51.136;17.024;2023-08-24T18:22:51;26.30;45.50
70244;DHT22;57634;51.136;17.024;2023-08-24T18:25:52;26.20;45.60
70244;DHT22;57634;51.136;17.024;2023-08-24T18:28:53;26.20;45.90
70244;DHT22;57634;51.136;17.024;2023-08-24T18:31:55;26.10;46.00
70244;DHT22;57634;51.136;17.024;2023-08-24T18:34:56;26.00;46.30
70244;DHT22;57634;51.136;17.024;2023-08-24T18:38:01;26.00;46.50
70244;DHT22;57634;51.136;17.024;2023-08-24T18:41:05;25.90;46.90
70244;DHT22;57634;51.136;17.024;2023-08-24T18:44:06;25.80;47.00
70244;DHT22;57634;51.136;17.024;2023-08-24T18:47:08;25.80;47.20
70244;DHT22;57634;51.136;17.024;2023-08-24T18:50:09;25.80;47.30
70244;DHT22;57634;51.136;17.024;2023-08-24T18:53:10;25.70;47.50
70244;DHT22;57634;51.136;17.024;2023-08-24T18:56:38;25.70;47.70
70244;DHT22;57634;51.136;17.024;2023-08-24T18:59:40;25.60;48.20
70244;DHT22;57634;51.136;17.024;2023-08-24T19:02:41;25.60;48.50
70244;DHT22;57634;51.136;17.024;2023-08-24T19:05:43;25.50;48.60
70244;DHT22;57634;51.136;17.024;2023-08-24T19:08:47;25.40;48.70
70244;DHT22;57634;51.136;17.024;2023-08-24T19:11:49;25.40;48.80
70244;DHT22;57634;51.136;17.024;2023-08-24T19:14:50;25.40;48.90
70244;DHT22;57634;51.136;17.024;2023-08-24T19:17:51;25.30;48.80
70244;DHT22;57634;51.136;17.024;2023-08-24T19:20:52;25.20;48.90
70244;DHT22;57634;51.136;17.024;2023-08-24T19:23:54;25.20;49.00
70244;DHT22;57634;51.136;17.024;2023-08-24T19:26:55;25.10;49.10
70244;DHT22;57634;51.136;17.024;2023-08-24T19:29:59;25.10;49.30
70244;DHT22;57634;51.136;17.024;2023-08-24T19:33:01;25.10;49.40
70244;DHT22;57634;51.136;17.024;2023-08-24T19:36:28;25.00;49.30
70244;DHT22;57634;51.136;17.024;2023-08-24T19:39:30;25.00;49.50